Time;durP1;ratioP1;P1;durP2;ratioP2;P2;SDS_P1;SDS_P2;PMS_P1;PMS_P2;Temp;Humidity;BMP_temperature;BMP_pressure;BME280_temperature;BME280_humidity;BME280_pressure;Samples;Min_cycle;Max_cycle;Signal;HPM_P1;HPM_P2
2021/10/17 00:04:38;;;;;;;14.53;7.60;;;18.20;57.40;;;;;;20809103;28;82204;-71
2021/10/17 00:14:40;;;;;;;16.70;8.37;;;18.10;58.00;;;;;;20807538;28;80089;-72
2021/10/17 00:24:42;;;;;;;17.47;7.33;;;18.00;57.60;;;;;;20806909;28;81947;-77
2021/10/17 00:34:46;;;;;;;19.65;7.75;;;18.00;56.50;;;;;;20806968;28;81653;-74
2021/10/17 00:44:56;;;;;;;15.02;7.43;;;18.10;56.20;;;;;;20805967;28;81055;-74
2021/10/17 00:54:59;;;;;;;13.70;6.97;;;18.10;56.40;;;;;;20805014;28;80487;-76
2021/10/17 01:05:02;;;;;;;;;;;18.00;56.10;;;;;;20804256;28;82010;-76
2021/10/17 01:15:07;;;;;;;16.08;8.60;;;18.00;56.30;;;;;;20826889;28;81803;-72
2021/10/17 01:25:14;;;;;;;19.70;8.77;;;18.00;56.10;;;;;;20803924;28;80050;-73
2021/10/17 01:35:20;;;;;;;19.27;8.45;;;18.00;56.00;;;;;;20803538;28;81197;-73
2021/10/17 01:45:29;;;;;;;12.98;6.53;;;18.00;55.30;;;;;;20786253;28;79818;-77
2021/10/17 01:55:35;;;;;;;11.40;4.78;;;18.00;55.20;;;;;;20832506;27;81816;-74
2021/10/17 02:05:39;;;;;;;8.43;4.15;;;18.00;55.80;;;;;;20800955;28;80701;-74
2021/10/17 02:15:49;;;;;;;6.18;3.70;;;17.90;56.10;;;;;;20799838;28;80638;-73
2021/10/17 02:26:10;;;;;;;6.10;3.72;;;17.80;58.10;;;;;;20801647;28;82719;-73
2021/10/17 02:36:19;;;;;;;5.07;3.28;;;17.70;59.00;;;;;;20799556;28;81344;-73
2021/10/17 02:46:25;;;;;;;9.13;3.80;;;17.60;59.90;;;;;;20798723;28;80743;-72
2021/10/17 02:56:47;;;;;;;7.07;3.35;;;17.50;61.90;;;;;;20797490;28;80372;-71
2021/10/17 03:07:08;;;;;;;5.45;3.58;;;17.30;64.40;;;;;;20825675;27;80332;-72
2021/10/17 03:17:29;;;;;;;8.88;5.32;;;17.20;65.30;;;;;;20798756;28;81753;-71
2021/10/17 03:27:41;;;;;;;7.65;4.95;;;17.10;67.80;;;;;;20812200;28;82376;-72
2021/10/17 03:37:49;;;;;;;6.50;4.28;;;16.90;69.10;;;;;;20811576;28;81598;-71
2021/10/17 03:47:58;;;;;;;8.00;5.70;;;16.60;70.20;;;;;;20809333;28;81850;-72
2021/10/17 03:58:11;;;;;;;7.35;4.80;;;16.60;71.70;;;;;;20809202;28;81139;-71
2021/10/17 04:08:20;;;;;;;9.38;4.50;;;16.50;72.70;;;;;;20808420;28;80902;-72
2021/10/17 04:18:41;;;;;;;7.57;5.07;;;16.50;72.90;;;;;;20807391;28;82088;-71
2021/10/17 04:29:03;;;;;;;8.05;5.60;;;16.50;73.00;;;;;;20833110;27;80611;-72
2021/10/17 04:39:25;;;;;;;11.25;5.43;;;16.40;73.50;;;;;;20807099;28;81674;-73
2021/10/17 04:49:46;;;;;;;8.43;4.85;;;16.50;73.70;;;;;;20833041;27;80388;-74
2021/10/17 05:00:08;;;;;;;7.45;5.28;;;16.50;74.00;;;;;;20804499;28;80078;-71
2021/10/17 05:10:29;;;;;;;10.13;5.47;;;16.50;74.00;;;;;;20832021;28;83071;-72
2021/10/17 05:20:51;;;;;;;9.15;5.57;;;16.50;74.40;;;;;;20869822;28;81517;-71
2021/10/17 05:31:09;;;;;;;8.82;5.65;;;16.30;75.20;;;;;;20876111;27;82806;-65
2021/10/17 05:41:22;;;;;;;9.70;5.43;;;16.20;76.40;;;;;;20875183;27;81479;-64
2021/10/17 05:51:28;;;;;;;7.22;4.68;;;16.10;76.70;;;;;;20875713;27;81561;-63
2021/10/17 06:01:36;;;;;;;8.57;5.80;;;16.20;77.00;;;;;;20873369;28;81100;-62
2021/10/17 06:11:42;;;;;;;10.80;5.18;;;16.20;77.30;;;;;;20867654;28;81813;-64
2021/10/17 06:21:45;;;;;;;7.97;5.47;;;16.20;77.30;;;;;;20870726;27;81944;-63
2021/10/17 06:31:48;;;;;;;10.13;5.43;;;16.30;77.30;;;;;;20875275;27;81323;-67
2021/10/17 06:41:53;;;;;;;8.45;4.82;;;16.20;77.40;;;;;;20874201;27;81334;-64
2021/10/17 06:51:57;;;;;;;10.88;6.32;;;16.20;77.20;;;;;;20871752;27;81385;-63
2021/10/17 07:02:02;;;;;;;10.18;6.20;;;15.80;77.60;;;;;;20884712;28;81777;-64
2021/10/17 07:12:04;;;;;;;10.30;5.68;;;15.70;77.80;;;;;;20887428;27;80733;-63
2021/10/17 07:22:08;;;;;;;8.25;4.82;;;15.70;77.80;;;;;;20883447;27;81791;-65
2021/10/17 07:32:11;;;;;;;10.02;5.32;;;16.20;77.00;;;;;;20885403;28;81609;-62
2021/10/17 07:42:14;;;;;;;9.03;5.13;;;16.80;75.00;;;;;;20881113;28;81949;-63
2021/10/17 07:52:16;;;;;;;8.90;4.77;;;17.20;73.80;;;;;;20884329;27;81896;-63
2021/10/17 08:02:20;;;;;;;7.63;4.72;;;17.60;71.70;;;;;;20883341;27;81447;-64
2021/10/17 08:12:26;;;;;;;8.93;4.82;;;17.50;71.40;;;;;;20879905;27;81545;-65
2021/10/17 08:22:29;;;;;;;6.47;4.90;;;17.80;70.70;;;;;;20882189;27;82156;-66
2021/10/17 08:32:31;;;;;;;9.03;5.70;;;18.00;69.20;;;;;;20881964;28;81291;-66
2021/10/17 08:42:34;;;;;;;11.23;5.97;;;18.20;68.20;;;;;;20877676;27;81754;-64
2021/10/17 08:52:38;;;;;;;8.55;5.45;;;18.50;67.10;;;;;;20875127;28;82031;-64
2021/10/17 09:02:43;;;;;;;11.10;6.32;;;18.70;65.70;;;;;;20885870;27;80772;-66
2021/10/17 09:12:47;;;;;;;10.73;5.85;;;19.10;65.20;;;;;;20891189;28;80744;-67
2021/10/17 09:22:50;;;;;;;9.75;5.70;;;19.50;63.20;;;;;;20885172;28;81037;-66
2021/10/17 09:33:09;;;;;;;;;;;20.00;59.90;;;;;;20882854;28;82343;-66
2021/10/17 09:43:22;;;;;;;9.63;6.05;;;20.50;58.90;;;;;;20901427;27;80456;-66
2021/10/17 09:53:48;;;;;;;9.57;5.45;;;23.30;50.50;;;;;;20886761;27;80293;-67
2021/10/17 10:03:54;;;;;;;10.52;6.63;;;26.40;42.80;;;;;;20887839;27;81989;-68
2021/10/17 10:14:00;;;;;;;9.55;6.13;;;29.00;36.90;;;;;;20885435;28;81890;-66
2021/10/17 10:24:07;;;;;;;9.20;6.40;;;28.70;37.00;;;;;;20886442;27;81391;-66
2021/10/17 10:34:13;;;;;;;11.35;6.65;;;26.20;41.70;;;;;;20896924;27;81589;-67
2021/10/17 10:44:30;;;;;;;10.23;6.15;;;24.90;43.60;;;;;;20899820;27;81566;-67
2021/10/17 10:54:33;;;;;;;12.35;7.20;;;33.40;29.20;;;;;;20898594;27;81992;-66
2021/10/17 11:04:42;;;;;;;10.32;5.95;;;37.50;24.60;;;;;;20897546;27;80740;-66
2021/10/17 11:14:45;;;;;;;11.63;6.65;;;33.40;29.20;;;;;;20898466;27;82017;-67
2021/10/17 11:24:55;;;;;;;12.32;7.13;;;33.50;28.80;;;;;;20897770;27;81813;-67
2021/10/17 11:34:58;;;;;;;12.63;6.97;;;33.30;28.90;;;;;;20896590;27;80838;-67
2021/10/17 11:45:01;;;;;;;12.07;7.72;;;30.30;33.00;;;;;;20895652;27;81991;-67
2021/10/17 11:55:03;;;;;;;11.93;7.60;;;28.70;35.40;;;;;;20896154;27;80966;-66
2021/10/17 12:05:21;;;;;;;10.30;6.57;;;30.60;32.50;;;;;;20896179;27;81935;-66
2021/10/17 12:15:23;;;;;;;10.77;5.40;;;32.30;30.90;;;;;;20894779;27;81476;-67
2021/10/17 12:25:27;;;;;;;9.93;6.13;;;33.70;28.50;;;;;;20894260;28;81853;-66
2021/10/17 12:35:38;;;;;;;12.73;6.63;;;30.20;33.00;;;;;;20893597;27;81773;-66
2021/10/17 12:45:40;;;;;;;11.10;6.17;;;27.90;36.20;;;;;;20851517;27;81754;-65
2021/10/17 12:55:43;;;;;;;9.70;6.75;;;30.50;33.70;;;;;;20888384;27;80793;-69
2021/10/17 13:05:53;;;;;;;10.15;6.20;;;32.50;30.60;;;;;;20876254;28;81052;-67
2021/10/17 13:15:55;;;;;;;;;;;32.20;31.40;;;;;;20806919;27;80569;-67
2021/10/17 13:25:58;;;;;;;8.98;6.93;;;35.20;27.80;;;;;;20828772;28;81698;-68
2021/10/17 13:35:59;;;;;;;8.40;5.78;;;31.50;31.90;;;;;;20800196;28;80311;-66
2021/10/17 13:46:02;;;;;;;9.57;5.60;;;29.30;34.80;;;;;;20802499;28;81794;-67
2021/10/17 13:56:04;;;;;;;7.78;5.15;;;28.10;36.90;;;;;;20804863;28;82014;-67
2021/10/17 14:06:07;;;;;;;10.13;4.40;;;29.30;35.40;;;;;;20803868;28;81889;-68
2021/10/17 14:16:09;;;;;;;5.38;4.10;;;31.30;32.10;;;;;;20803519;28;81969;-68
2021/10/17 14:26:12;;;;;;;6.38;3.40;;;30.00;33.90;;;;;;20803970;28;81730;-67
2021/10/17 14:36:16;;;;;;;4.32;2.42;;;28.90;36.00;;;;;;20801848;28;81614;-67
2021/10/17 14:46:19;;;;;;;3.38;2.85;;;29.10;35.40;;;;;;20800236;28;80580;-67
2021/10/17 14:56:20;;;;;;;5.13;2.97;;;29.40;35.50;;;;;;20801974;28;83403;-68
2021/10/17 15:06:22;;;;;;;7.55;3.67;;;28.40;36.40;;;;;;20800589;28;82011;-67
2021/10/17 15:16:24;;;;;;;3.55;2.60;;;29.70;35.00;;;;;;20805634;28;81830;-67
2021/10/17 15:26:27;;;;;;;8.95;4.28;;;29.40;34.60;;;;;;20829461;28;80841;-67
2021/10/17 15:36:30;;;;;;;7.28;4.20;;;29.80;34.10;;;;;;20888902;28;83091;-67
2021/10/17 15:46:31;;;;;;;7.20;3.60;;;29.30;34.80;;;;;;20893810;27;81776;-67
2021/10/17 15:56:35;;;;;;;4.90;3.55;;;27.90;36.90;;;;;;20871401;27;82004;-66
2021/10/17 16:06:37;;;;;;;6.32;3.75;;;26.60;39.30;;;;;;20887260;27;80857;-67
2021/10/17 16:16:38;;;;;;;6.53;3.45;;;25.70;40.70;;;;;;20891173;27;80808;-66
2021/10/17 16:26:40;;;;;;;4.68;3.00;;;25.10;41.50;;;;;;20874461;27;80415;-67
2021/10/17 16:36:42;;;;;;;6.57;3.38;;;24.50;41.90;;;;;;20884204;27;82049;-66
2021/10/17 16:46:44;;;;;;;6.20;3.33;;;24.00;42.90;;;;;;20830461;27;81876;-66
2021/10/17 16:56:45;;;;;;;4.65;2.80;;;23.50;43.90;;;;;;20883122;28;81962;-66
2021/10/17 17:06:47;;;;;;;;;;;23.10;45.30;;;;;;20890000;27;81512;-67
2021/10/17 17:16:48;;;;;;;3.47;2.10;;;22.70;45.90;;;;;;20868730;27;79132;-67
2021/10/17 17:26:51;;;;;;;4.85;2.85;;;22.40;47.70;;;;;;20804914;28;80044;-66
2021/10/17 17:36:54;;;;;;;7.72;2.55;;;22.10;48.40;;;;;;20805978;28;80630;-66
2021/10/17 17:46:56;;;;;;;6.25;2.85;;;21.90;49.30;;;;;;20812205;28;81889;-70
2021/10/17 17:56:58;;;;;;;6.13;3.30;;;21.70;49.80;;;;;;20799853;28;80803;-70
2021/10/17 18:06:59;;;;;;;;;;;21.40;50.60;;;;;;20795928;28;81942;-66
2021/10/17 18:17:01;;;;;;;7.97;3.05;;;21.20;50.90;;;;;;20818742;28;81821;-67
2021/10/17 18:27:03;;;;;;;5.97;2.93;;;21.00;51.70;;;;;;20799505;28;79903;-69
2021/10/17 18:37:05;;;;;;;5.80;3.45;;;20.90;52.60;;;;;;20815859;28;80593;-69
2021/10/17 18:47:07;;;;;;;7.00;3.57;;;20.70;53.20;;;;;;20800301;28;81098;-68
2021/10/17 18:57:09;;;;;;;;;;;20.50;54.60;;;;;;20825614;28;80037;-71
2021/10/17 19:07:11;;;;;;;7.57;4.50;;;20.40;55.10;;;;;;20836142;28;80723;-69
2021/10/17 19:17:13;;;;;;;;;;;20.30;56.20;;;;;;20813695;28;80072;-69
2021/10/17 19:27:15;;;;;;;6.97;4.40;;;20.40;56.30;;;;;;20845731;28;80165;-66
2021/10/17 19:37:18;;;;;;;;;;;20.40;56.30;;;;;;20866547;28;79900;-68
2021/10/17 19:47:20;;;;;;;6.45;4.53;;;20.50;56.40;;;;;;20904535;28;81756;-69
2021/10/17 19:57:23;;;;;;;9.55;5.20;;;20.40;56.70;;;;;;20893324;28;80143;-71
2021/10/17 20:07:27;;;;;;;11.45;4.60;;;20.40;57.00;;;;;;20892673;27;80264;-67
2021/10/17 20:17:28;;;;;;;10.40;4.87;;;20.40;57.40;;;;;;20839113;27;81971;-69
2021/10/17 20:27:30;;;;;;;8.73;4.47;;;20.40;57.80;;;;;;20811051;28;81886;-66
2021/10/17 20:37:37;;;;;;;8.82;4.88;;;20.30;58.10;;;;;;20808549;28;80727;-67
2021/10/17 20:47:39;;;;;;;6.00;3.70;;;20.40;58.40;;;;;;20808222;28;80096;-70
2021/10/17 20:57:41;;;;;;;5.43;2.90;;;20.40;58.60;;;;;;20806957;28;80913;-69
2021/10/17 21:07:43;;;;;;;9.77;5.27;;;20.40;58.70;;;;;;20820987;28;81778;-68
2021/10/17 21:17:45;;;;;;;7.13;3.30;;;20.50;58.70;;;;;;20804875;28;81916;-71
2021/10/17 21:27:47;;;;;;;5.90;3.37;;;20.40;59.10;;;;;;20811986;28;81870;-69
2021/10/17 21:37:49;;;;;;;6.35;4.05;;;20.30;59.60;;;;;;20839421;28;81274;-70
2021/10/17 21:47:51;;;;;;;5.37;2.97;;;20.30;60.00;;;;;;20853436;27;82066;-70
2021/10/17 21:57:53;;;;;;;6.90;3.10;;;20.30;60.20;;;;;;20803353;28;82065;-70
2021/10/17 22:07:55;;;;;;;4.87;2.43;;;20.40;60.80;;;;;;20800599;28;81881;-70
2021/10/17 22:17:57;;;;;;;5.13;2.90;;;20.10;61.70;;;;;;20801589;28;81792;-70
2021/10/17 22:27:59;;;;;;;6.10;2.78;;;19.90;62.50;;;;;;20798800;28;81874;-69
2021/10/17 22:38:08;;;;;;;6.53;2.70;;;19.50;64.00;;;;;;20807929;28;80577;-69
2021/10/17 22:48:10;;;;;;;7.40;3.22;;;19.20;65.20;;;;;;20847256;27;80632;-70
2021/10/17 22:58:11;;;;;;;5.70;2.70;;;19.10;66.00;;;;;;20848269;28;81214;-69
2021/10/17 23:08:13;;;;;;;5.13;2.73;;;18.90;66.90;;;;;;20798723;28;82314;-69
2021/10/17 23:18:16;;;;;;;4.10;2.97;;;18.60;67.80;;;;;;20797651;28;81810;-69
2021/10/17 23:28:18;;;;;;;4.60;3.05;;;18.40;68.90;;;;;;20797204;28;80538;-70
2021/10/17 23:38:20;;;;;;;4.67;2.60;;;18.40;69.50;;;;;;20803763;28;80719;-69
2021/10/17 23:48:24;;;;;;;4.78;2.67;;;18.30;70.00;;;;;;20809412;28;80738;-69
2021/10/17 23:58:27;;;;;;;2.88;2.00;;;18.20;70.60;;;;;;20809787;28;81570;-69
